sensor_id;sensor_type;location;lat;lon;timestamp;P1;durP1;ratioP1;P2;durP2;ratioP2
76296;SDS011;65104;52.994;6.552;2024-03-02T00:01:15;1.67;;;1.40;;
76296;SDS011;65104;52.994;6.552;2024-03-02T00:03:42;2.13;;;1.30;;
76296;SDS011;65104;52.994;6.552;2024-03-02T00:06:08;2.22;;;1.88;;
76296;SDS011;65104;52.994;6.552;2024-03-02T00:08:35;2.22;;;1.38;;
76296;SDS011;65104;52.994;6.552;2024-03-02T00:11:03;3.03;;;1.30;;
76296;SDS011;65104;52.994;6.552;2024-03-02T00:15:57;1.92;;;1.40;;
76296;SDS011;65104;52.994;6.552;2024-03-02T00:18:25;2.25;;;1.60;;
76296;SDS011;65104;52.994;6.552;2024-03-02T00:20:52;2.00;;;1.58;;
76296;SDS011;65104;52.994;6.552;2024-03-02T00:23:19;3.13;;;1.80;;
76296;SDS011;65104;52.994;6.552;2024-03-02T00:25:47;1.23;;;1.10;;
76296;SDS011;65104;52.994;6.552;2024-03-02T00:28:16;3.53;;;1.55;;
76296;SDS011;65104;52.994;6.552;2024-03-02T00:33:28;4.03;;;1.80;;
76296;SDS011;65104;52.994;6.552;2024-03-02T00:35:56;1.48;;;1.13;;
76296;SDS011;65104;52.994;6.552;2024-03-02T00:38:22;2.00;;;1.35;;
76296;SDS011;65104;52.994;6.552;2024-03-02T00:40:49;2.60;;;1.33;;
76296;SDS011;65104;52.994;6.552;2024-03-02T00:46:02;1.63;;;1.52;;
76296;SDS011;65104;52.994;6.552;2024-03-02T00:50:56;2.90;;;1.20;;
76296;SDS011;65104;52.994;6.552;2024-03-02T00:53:23;2.47;;;1.50;;
76296;SDS011;65104;52.994;6.552;2024-03-02T00:55:50;2.20;;;1.40;;
76296;SDS011;65104;52.994;6.552;2024-03-02T00:58:16;2.28;;;1.38;;
76296;SDS011;65104;52.994;6.552;2024-03-02T01:00:43;2.35;;;1.60;;
76296;SDS011;65104;52.994;6.552;2024-03-02T01:03:10;2.70;;;1.30;;
76296;SDS011;65104;52.994;6.552;2024-03-02T01:05:39;1.92;;;1.40;;
76296;SDS011;65104;52.994;6.552;2024-03-02T01:08:07;2.75;;;1.45;;
76296;SDS011;65104;52.994;6.552;2024-03-02T01:10:33;2.67;;;1.25;;
76296;SDS011;65104;52.994;6.552;2024-03-02T01:13:00;2.30;;;1.30;;
76296;SDS011;65104;52.994;6.552;2024-03-02T01:15:26;2.45;;;1.38;;
76296;SDS011;65104;52.994;6.552;2024-03-02T01:17:53;2.30;;;1.55;;
76296;SDS011;65104;52.994;6.552;2024-03-02T01:20:20;3.28;;;1.58;;
76296;SDS011;65104;52.994;6.552;2024-03-02T01:22:47;2.78;;;1.60;;
76296;SDS011;65104;52.994;6.552;2024-03-02T01:25:14;1.88;;;1.40;;
76296;SDS011;65104;52.994;6.552;2024-03-02T01:27:40;3.53;;;1.55;;
76296;SDS011;65104;52.994;6.552;2024-03-02T01:30:07;2.10;;;1.10;;
76296;SDS011;65104;52.994;6.552;2024-03-02T01:32:34;1.45;;;1.23;;
76296;SDS011;65104;52.994;6.552;2024-03-02T01:35:00;1.70;;;1.10;;
76296;SDS011;65104;52.994;6.552;2024-03-02T01:37:28;2.30;;;1.48;;
76296;SDS011;65104;52.994;6.552;2024-03-02T01:39:54;1.92;;;1.45;;
76296;SDS011;65104;52.994;6.552;2024-03-02T01:42:21;3.08;;;1.50;;
76296;SDS011;65104;52.994;6.552;2024-03-02T01:44:47;1.90;;;1.40;;
76296;SDS011;65104;52.994;6.552;2024-03-02T01:47:13;3.13;;;1.70;;
76296;SDS011;65104;52.994;6.552;2024-03-02T01:49:40;2.15;;;1.40;;
76296;SDS011;65104;52.994;6.552;2024-03-02T01:52:07;2.58;;;1.42;;
76296;SDS011;65104;52.994;6.552;2024-03-02T01:54:34;2.53;;;1.63;;
76296;SDS011;65104;52.994;6.552;2024-03-02T01:59:27;2.30;;;1.30;;
76296;SDS011;65104;52.994;6.552;2024-03-02T02:01:53;1.55;;;1.45;;
76296;SDS011;65104;52.994;6.552;2024-03-02T02:04:20;4.22;;;1.48;;
76296;SDS011;65104;52.994;6.552;2024-03-02T02:06:52;2.15;;;1.60;;
76296;SDS011;65104;52.994;6.552;2024-03-02T02:09:18;4.75;;;2.35;;
76296;SDS011;65104;52.994;6.552;2024-03-02T02:11:46;1.75;;;1.27;;
76296;SDS011;65104;52.994;6.552;2024-03-02T02:16:39;2.17;;;1.42;;
76296;SDS011;65104;52.994;6.552;2024-03-02T02:19:05;3.30;;;1.40;;
76296;SDS011;65104;52.994;6.552;2024-03-02T02:21:33;2.35;;;1.48;;
76296;SDS011;65104;52.994;6.552;2024-03-02T02:23:59;2.08;;;1.33;;
76296;SDS011;65104;52.994;6.552;2024-03-02T02:26:28;2.03;;;1.63;;
76296;SDS011;65104;52.994;6.552;2024-03-02T02:28:54;2.83;;;1.38;;
76296;SDS011;65104;52.994;6.552;2024-03-02T02:31:21;2.78;;;1.83;;
76296;SDS011;65104;52.994;6.552;2024-03-02T02:33:47;2.50;;;1.60;;
76296;SDS011;65104;52.994;6.552;2024-03-02T02:36:13;4.15;;;1.52;;
76296;SDS011;65104;52.994;6.552;2024-03-02T02:38:42;1.88;;;1.27;;
76296;SDS011;65104;52.994;6.552;2024-03-02T02:41:10;2.33;;;1.48;;
76296;SDS011;65104;52.994;6.552;2024-03-02T02:43:36;4.15;;;1.90;;
76296;SDS011;65104;52.994;6.552;2024-03-02T02:46:04;2.17;;;1.48;;
76296;SDS011;65104;52.994;6.552;2024-03-02T02:48:30;2.42;;;1.52;;
76296;SDS011;65104;52.994;6.552;2024-03-02T02:50:57;2.25;;;1.60;;
76296;SDS011;65104;52.994;6.552;2024-03-02T02:53:23;3.78;;;1.52;;
76296;SDS011;65104;52.994;6.552;2024-03-02T02:55:51;3.47;;;1.60;;
76296;SDS011;65104;52.994;6.552;2024-03-02T03:00:43;3.05;;;1.92;;
76296;SDS011;65104;52.994;6.552;2024-03-02T03:03:10;2.42;;;1.65;;
76296;SDS011;65104;52.994;6.552;2024-03-02T03:05:36;2.72;;;1.27;;
76296;SDS011;65104;52.994;6.552;2024-03-02T03:08:03;2.70;;;1.50;;
76296;SDS011;65104;52.994;6.552;2024-03-02T03:10:28;2.40;;;1.27;;
76296;SDS011;65104;52.994;6.552;2024-03-02T03:12:56;2.15;;;1.27;;
76296;SDS011;65104;52.994;6.552;2024-03-02T03:17:49;4.55;;;1.45;;
76296;SDS011;65104;52.994;6.552;2024-03-02T03:20:15;3.17;;;1.33;;
76296;SDS011;65104;52.994;6.552;2024-03-02T03:22:42;1.48;;;1.20;;
76296;SDS011;65104;52.994;6.552;2024-03-02T03:25:08;1.75;;;1.23;;
76296;SDS011;65104;52.994;6.552;2024-03-02T03:27:35;4.43;;;1.58;;
76296;SDS011;65104;52.994;6.552;2024-03-02T03:30:03;2.97;;;1.30;;
76296;SDS011;65104;52.994;6.552;2024-03-02T03:32:31;2.47;;;1.83;;
76296;SDS011;65104;52.994;6.552;2024-03-02T03:34:57;1.88;;;1.20;;
76296;SDS011;65104;52.994;6.552;2024-03-02T03:37:23;2.10;;;1.45;;
76296;SDS011;65104;52.994;6.552;2024-03-02T03:39:51;1.73;;;1.42;;
76296;SDS011;65104;52.994;6.552;2024-03-02T03:42:18;2.15;;;1.23;;
76296;SDS011;65104;52.994;6.552;2024-03-02T03:44:44;2.05;;;1.35;;
76296;SDS011;65104;52.994;6.552;2024-03-02T03:47:12;2.28;;;1.38;;
76296;SDS011;65104;52.994;6.552;2024-03-02T03:49:38;3.47;;;1.40;;
76296;SDS011;65104;52.994;6.552;2024-03-02T03:52:05;2.50;;;1.60;;
76296;SDS011;65104;52.994;6.552;2024-03-02T03:54:31;2.08;;;1.40;;
76296;SDS011;65104;52.994;6.552;2024-03-02T03:56:58;2.10;;;1.20;;
76296;SDS011;65104;52.994;6.552;2024-03-02T03:59:24;1.95;;;1.17;;
76296;SDS011;65104;52.994;6.552;2024-03-02T04:01:50;1.88;;;1.40;;
76296;SDS011;65104;52.994;6.552;2024-03-02T04:04:19;2.63;;;1.50;;
76296;SDS011;65104;52.994;6.552;2024-03-02T04:09:12;1.73;;;1.45;;
76296;SDS011;65104;52.994;6.552;2024-03-02T04:11:38;2.10;;;1.38;;
76296;SDS011;65104;52.994;6.552;2024-03-02T04:14:04;1.85;;;1.27;;
76296;SDS011;65104;52.994;6.552;2024-03-02T04:16:31;3.42;;;1.27;;
76296;SDS011;65104;52.994;6.552;2024-03-02T04:18:58;2.15;;;1.40;;
76296;SDS011;65104;52.994;6.552;2024-03-02T04:21:26;2.03;;;1.50;;
76296;SDS011;65104;52.994;6.552;2024-03-02T04:23:52;2.05;;;1.55;;
76296;SDS011;65104;52.994;6.552;2024-03-02T04:26:22;2.13;;;1.58;;
76296;SDS011;65104;52.994;6.552;2024-03-02T04:28:49;2.38;;;1.20;;
76296;SDS011;65104;52.994;6.552;2024-03-02T04:31:15;2.63;;;1.35;;
76296;SDS011;65104;52.994;6.552;2024-03-02T04:33:41;2.58;;;1.40;;
76296;SDS011;65104;52.994;6.552;2024-03-02T04:36:08;2.15;;;1.60;;
76296;SDS011;65104;52.994;6.552;2024-03-02T04:38:36;1.60;;;1.30;;
76296;SDS011;65104;52.994;6.552;2024-03-02T04:43:28;1.50;;;1.08;;
76296;SDS011;65104;52.994;6.552;2024-03-02T04:45:55;6.78;;;2.08;;
76296;SDS011;65104;52.994;6.552;2024-03-02T04:48:21;2.72;;;1.45;;
76296;SDS011;65104;52.994;6.552;2024-03-02T04:50:48;2.03;;;1.02;;
76296;SDS011;65104;52.994;6.552;2024-03-02T04:53:14;2.00;;;1.80;;
76296;SDS011;65104;52.994;6.552;2024-03-02T04:55:42;3.67;;;1.60;;
76296;SDS011;65104;52.994;6.552;2024-03-02T04:58:38;2.97;;;1.60;;
76296;SDS011;65104;52.994;6.552;2024-03-02T05:01:04;2.08;;;1.40;;
76296;SDS011;65104;52.994;6.552;2024-03-02T05:03:31;3.17;;;1.70;;
76296;SDS011;65104;52.994;6.552;2024-03-02T05:05:59;1.88;;;1.50;;
76296;SDS011;65104;52.994;6.552;2024-03-02T05:08:26;2.03;;;1.23;;
76296;SDS011;65104;52.994;6.552;2024-03-02T05:10:54;1.55;;;1.30;;
76296;SDS011;65104;52.994;6.552;2024-03-02T05:15:46;1.50;;;1.15;;
76296;SDS011;65104;52.994;6.552;2024-03-02T05:18:12;2.67;;;1.15;;
76296;SDS011;65104;52.994;6.552;2024-03-02T05:20:38;1.80;;;1.08;;
76296;SDS011;65104;52.994;6.552;2024-03-02T05:23:05;2.63;;;1.35;;
76296;SDS011;65104;52.994;6.552;2024-03-02T05:25:31;3.00;;;1.27;;
76296;SDS011;65104;52.994;6.552;2024-03-02T05:28:01;2.58;;;1.50;;
76296;SDS011;65104;52.994;6.552;2024-03-02T05:32:54;1.90;;;1.15;;
76296;SDS011;65104;52.994;6.552;2024-03-02T05:35:20;2.53;;;1.50;;
76296;SDS011;65104;52.994;6.552;2024-03-02T05:37:47;2.40;;;1.80;;
76296;SDS011;65104;52.994;6.552;2024-03-02T05:40:13;1.95;;;1.30;;
76296;SDS011;65104;52.994;6.552;2024-03-02T05:42:40;2.15;;;1.25;;
76296;SDS011;65104;52.994;6.552;2024-03-02T05:45:08;1.85;;;1.50;;
76296;SDS011;65104;52.994;6.552;2024-03-02T05:47:35;2.75;;;1.75;;
76296;SDS011;65104;52.994;6.552;2024-03-02T05:50:02;1.40;;;1.30;;
76296;SDS011;65104;52.994;6.552;2024-03-02T05:52:29;1.55;;;1.15;;
76296;SDS011;65104;52.994;6.552;2024-03-02T05:54:55;1.92;;;1.38;;
76296;SDS011;65104;52.994;6.552;2024-03-02T05:57:22;1.45;;;1.17;;
76296;SDS011;65104;52.994;6.552;2024-03-02T06:00:12;2.08;;;1.40;;
76296;SDS011;65104;52.994;6.552;2024-03-02T06:02:39;1.63;;;1.30;;
76296;SDS011;65104;52.994;6.552;2024-03-02T06:05:05;1.70;;;1.23;;
76296;SDS011;65104;52.994;6.552;2024-03-02T06:07:32;1.70;;;1.33;;
76296;SDS011;65104;52.994;6.552;2024-03-02T06:09:58;1.38;;;1.27;;
76296;SDS011;65104;52.994;6.552;2024-03-02T06:12:25;2.85;;;1.58;;
76296;SDS011;65104;52.994;6.552;2024-03-02T06:14:51;1.88;;;1.23;;
76296;SDS011;65104;52.994;6.552;2024-03-02T06:17:19;2.40;;;1.55;;
76296;SDS011;65104;52.994;6.552;2024-03-02T06:19:45;2.10;;;1.42;;
76296;SDS011;65104;52.994;6.552;2024-03-02T06:22:11;2.63;;;1.63;;
76296;SDS011;65104;52.994;6.552;2024-03-02T06:24:38;1.25;;;1.02;;
76296;SDS011;65104;52.994;6.552;2024-03-02T06:27:05;2.78;;;1.48;;
76296;SDS011;65104;52.994;6.552;2024-03-02T06:29:32;2.30;;;1.40;;
76296;SDS011;65104;52.994;6.552;2024-03-02T06:31:58;1.67;;;1.10;;
76296;SDS011;65104;52.994;6.552;2024-03-02T06:34:26;2.38;;;1.58;;
76296;SDS011;65104;52.994;6.552;2024-03-02T06:36:53;2.13;;;1.15;;
76296;SDS011;65104;52.994;6.552;2024-03-02T06:39:19;1.98;;;1.27;;
76296;SDS011;65104;52.994;6.552;2024-03-02T06:41:46;2.25;;;1.48;;
76296;SDS011;65104;52.994;6.552;2024-03-02T06:44:13;1.25;;;0.82;;
76296;SDS011;65104;52.994;6.552;2024-03-02T06:46:39;2.50;;;1.30;;
76296;SDS011;65104;52.994;6.552;2024-03-02T06:49:06;2.83;;;1.30;;
76296;SDS011;65104;52.994;6.552;2024-03-02T06:51:33;3.53;;;1.50;;
76296;SDS011;65104;52.994;6.552;2024-03-02T06:54:00;1.80;;;1.33;;
76296;SDS011;65104;52.994;6.552;2024-03-02T06:56:26;2.50;;;1.48;;
76296;SDS011;65104;52.994;6.552;2024-03-02T06:58:53;2.05;;;1.25;;
76296;SDS011;65104;52.994;6.552;2024-03-02T07:01:19;2.45;;;1.50;;
76296;SDS011;65104;52.994;6.552;2024-03-02T07:03:46;1.75;;;1.38;;
76296;SDS011;65104;52.994;6.552;2024-03-02T07:06:12;3.78;;;1.30;;
76296;SDS011;65104;52.994;6.552;2024-03-02T07:08:40;2.03;;;1.30;;
76296;SDS011;65104;52.994;6.552;2024-03-02T07:11:06;1.95;;;1.30;;
76296;SDS011;65104;52.994;6.552;2024-03-02T07:13:32;2.35;;;1.30;;
76296;SDS011;65104;52.994;6.552;2024-03-02T07:15:59;2.10;;;1.52;;
76296;SDS011;65104;52.994;6.552;2024-03-02T07:18:43;4.18;;;1.80;;
76296;SDS011;65104;52.994;6.552;2024-03-02T07:21:16;1.58;;;1.33;;
76296;SDS011;65104;52.994;6.552;2024-03-02T07:23:43;2.55;;;1.70;;
76296;SDS011;65104;52.994;6.552;2024-03-02T07:26:10;2.17;;;1.48;;
76296;SDS011;65104;52.994;6.552;2024-03-02T07:28:36;1.60;;;1.50;;
76296;SDS011;65104;52.994;6.552;2024-03-02T07:31:03;1.63;;;1.30;;
76296;SDS011;65104;52.994;6.552;2024-03-02T07:33:30;2.05;;;1.50;;
76296;SDS011;65104;52.994;6.552;2024-03-02T07:35:57;3.20;;;1.55;;
76296;SDS011;65104;52.994;6.552;2024-03-02T07:38:24;1.48;;;1.33;;
76296;SDS011;65104;52.994;6.552;2024-03-02T07:40:52;3.17;;;1.25;;
76296;SDS011;65104;52.994;6.552;2024-03-02T07:43:19;2.55;;;1.35;;
76296;SDS011;65104;52.994;6.552;2024-03-02T07:45:46;1.58;;;1.25;;
76296;SDS011;65104;52.994;6.552;2024-03-02T07:48:12;2.63;;;1.50;;
76296;SDS011;65104;52.994;6.552;2024-03-02T07:50:38;1.45;;;1.10;;
76296;SDS011;65104;52.994;6.552;2024-03-02T07:53:05;2.47;;;1.40;;
76296;SDS011;65104;52.994;6.552;2024-03-02T07:55:32;2.05;;;1.30;;
76296;SDS011;65104;52.994;6.552;2024-03-02T07:58:00;1.77;;;1.27;;
76296;SDS011;65104;52.994;6.552;2024-03-02T08:00:27;3.70;;;1.88;;
76296;SDS011;65104;52.994;6.552;2024-03-02T08:02:53;1.17;;;1.05;;
76296;SDS011;65104;52.994;6.552;2024-03-02T08:05:20;1.33;;;0.93;;
76296;SDS011;65104;52.994;6.552;2024-03-02T08:07:46;2.38;;;1.30;;
76296;SDS011;65104;52.994;6.552;2024-03-02T08:10:13;3.47;;;1.30;;
76296;SDS011;65104;52.994;6.552;2024-03-02T08:12:39;1.40;;;1.08;;
76296;SDS011;65104;52.994;6.552;2024-03-02T08:15:07;2.33;;;1.05;;
76296;SDS011;65104;52.994;6.552;2024-03-02T08:17:34;1.00;;;0.82;;
76296;SDS011;65104;52.994;6.552;2024-03-02T08:20:00;1.85;;;1.05;;
76296;SDS011;65104;52.994;6.552;2024-03-02T08:22:27;2.25;;;0.90;;
76296;SDS011;65104;52.994;6.552;2024-03-02T08:24:54;1.23;;;0.68;;
76296;SDS011;65104;52.994;6.552;2024-03-02T08:27:20;1.30;;;0.68;;
76296;SDS011;65104;52.994;6.552;2024-03-02T08:29:46;0.75;;;0.50;;
76296;SDS011;65104;52.994;6.552;2024-03-02T08:32:14;0.60;;;0.50;;
76296;SDS011;65104;52.994;6.552;2024-03-02T08:34:42;1.25;;;0.80;;
76296;SDS011;65104;52.994;6.552;2024-03-02T08:37:09;1.58;;;0.40;;
76296;SDS011;65104;52.994;6.552;2024-03-02T08:39:35;2.05;;;0.60;;
76296;SDS011;65104;52.994;6.552;2024-03-02T08:42:01;1.48;;;0.73;;
76296;SDS011;65104;52.994;6.552;2024-03-02T08:44:29;1.02;;;0.60;;
76296;SDS011;65104;52.994;6.552;2024-03-02T08:46:55;0.70;;;0.60;;
76296;SDS011;65104;52.994;6.552;2024-03-02T08:49:23;1.50;;;1.33;;
76296;SDS011;65104;52.994;6.552;2024-03-02T08:51:50;1.27;;;1.00;;
76296;SDS011;65104;52.994;6.552;2024-03-02T08:54:19;1.95;;;0.77;;
76296;SDS011;65104;52.994;6.552;2024-03-02T08:56:46;2.15;;;0.77;;
76296;SDS011;65104;52.994;6.552;2024-03-02T08:59:12;1.33;;;0.88;;
76296;SDS011;65104;52.994;6.552;2024-03-02T09:01:38;1.15;;;0.80;;
76296;SDS011;65104;52.994;6.552;2024-03-02T09:04:06;1.50;;;0.82;;
76296;SDS011;65104;52.994;6.552;2024-03-02T09:06:35;1.10;;;0.77;;
76296;SDS011;65104;52.994;6.552;2024-03-02T09:09:01;1.67;;;1.50;;
76296;SDS011;65104;52.994;6.552;2024-03-02T09:11:28;2.00;;;0.95;;
76296;SDS011;65104;52.994;6.552;2024-03-02T09:13:54;1.77;;;1.17;;
76296;SDS011;65104;52.994;6.552;2024-03-02T09:16:21;1.13;;;1.02;;
76296;SDS011;65104;52.994;6.552;2024-03-02T09:18:48;1.20;;;0.95;;
76296;SDS011;65104;52.994;6.552;2024-03-02T09:21:14;0.88;;;0.80;;
76296;SDS011;65104;52.994;6.552;2024-03-02T09:23:42;2.70;;;1.17;;
76296;SDS011;65104;52.994;6.552;2024-03-02T09:26:10;1.70;;;0.88;;
76296;SDS011;65104;52.994;6.552;2024-03-02T09:28:37;1.15;;;0.73;;
76296;SDS011;65104;52.994;6.552;2024-03-02T09:31:03;0.75;;;0.63;;
76296;SDS011;65104;52.994;6.552;2024-03-02T09:33:30;0.50;;;0.50;;
76296;SDS011;65104;52.994;6.552;2024-03-02T09:35:56;0.85;;;0.50;;
76296;SDS011;65104;52.994;6.552;2024-03-02T09:38:23;0.43;;;0.43;;
76296;SDS011;65104;52.994;6.552;2024-03-02T09:40:51;0.70;;;0.47;;
76296;SDS011;65104;52.994;6.552;2024-03-02T09:43:17;0.60;;;0.60;;
76296;SDS011;65104;52.994;6.552;2024-03-02T09:45:44;2.65;;;0.70;;
76296;SDS011;65104;52.994;6.552;2024-03-02T09:48:11;0.40;;;0.40;;
76296;SDS011;65104;52.994;6.552;2024-03-02T09:50:38;0.98;;;0.55;;
76296;SDS011;65104;52.994;6.552;2024-03-02T09:53:04;0.88;;;0.70;;
76296;SDS011;65104;52.994;6.552;2024-03-02T09:55:31;1.73;;;0.65;;
76296;SDS011;65104;52.994;6.552;2024-03-02T09:57:59;1.00;;;0.65;;
76296;SDS011;65104;52.994;6.552;2024-03-02T10:00:25;0.93;;;0.88;;
76296;SDS011;65104;52.994;6.552;2024-03-02T10:02:52;0.93;;;0.93;;
76296;SDS011;65104;52.994;6.552;2024-03-02T10:05:24;1.75;;;0.80;;
76296;SDS011;65104;52.994;6.552;2024-03-02T10:07:59;2.03;;;0.90;;
76296;SDS011;65104;52.994;6.552;2024-03-02T10:10:26;1.13;;;0.80;;
76296;SDS011;65104;52.994;6.552;2024-03-02T10:13:04;1.30;;;1.00;;
76296;SDS011;65104;52.994;6.552;2024-03-02T10:15:31;0.85;;;0.70;;
76296;SDS011;65104;52.994;6.552;2024-03-02T10:17:58;1.77;;;0.85;;
76296;SDS011;65104;52.994;6.552;2024-03-02T10:20:25;1.92;;;0.90;;
76296;SDS011;65104;52.994;6.552;2024-03-02T10:22:53;2.45;;;0.80;;
76296;SDS011;65104;52.994;6.552;2024-03-02T10:25:29;1.05;;;0.90;;
76296;SDS011;65104;52.994;6.552;2024-03-02T10:27:57;2.22;;;0.90;;
76296;SDS011;65104;52.994;6.552;2024-03-02T10:30:25;1.42;;;1.00;;
76296;SDS011;65104;52.994;6.552;2024-03-02T10:32:52;1.45;;;1.05;;
76296;SDS011;65104;52.994;6.552;2024-03-02T10:35:19;2.60;;;0.77;;
76296;SDS011;65104;52.994;6.552;2024-03-02T10:37:47;1.30;;;0.73;;
76296;SDS011;65104;52.994;6.552;2024-03-02T10:40:13;1.13;;;0.90;;
76296;SDS011;65104;52.994;6.552;2024-03-02T10:42:40;2.72;;;0.90;;
76296;SDS011;65104;52.994;6.552;2024-03-02T10:45:08;0.88;;;0.73;;
76296;SDS011;65104;52.994;6.552;2024-03-02T10:47:36;0.85;;;0.77;;
76296;SDS011;65104;52.994;6.552;2024-03-02T10:50:04;1.35;;;0.80;;
76296;SDS011;65104;52.994;6.552;2024-03-02T10:52:33;0.70;;;0.70;;
76296;SDS011;65104;52.994;6.552;2024-03-02T10:54:59;1.25;;;1.15;;
76296;SDS011;65104;52.994;6.552;2024-03-02T10:57:26;2.15;;;0.63;;
76296;SDS011;65104;52.994;6.552;2024-03-02T10:59:54;0.68;;;0.55;;
76296;SDS011;65104;52.994;6.552;2024-03-02T11:02:22;1.85;;;0.60;;
76296;SDS011;65104;52.994;6.552;2024-03-02T11:07:17;1.50;;;0.75;;
76296;SDS011;65104;52.994;6.552;2024-03-02T11:09:45;0.73;;;0.50;;
76296;SDS011;65104;52.994;6.552;2024-03-02T11:12:15;0.68;;;0.60;;
76296;SDS011;65104;52.994;6.552;2024-03-02T11:14:45;0.50;;;0.50;;
76296;SDS011;65104;52.994;6.552;2024-03-02T11:17:12;0.50;;;0.50;;
76296;SDS011;65104;52.994;6.552;2024-03-02T11:19:40;1.15;;;0.73;;
76296;SDS011;65104;52.994;6.552;2024-03-02T11:22:07;1.58;;;0.60;;
76296;SDS011;65104;52.994;6.552;2024-03-02T11:24:36;1.50;;;0.90;;
76296;SDS011;65104;52.994;6.552;2024-03-02T11:27:03;0.63;;;0.30;;
76296;SDS011;65104;52.994;6.552;2024-03-02T11:29:45;1.75;;;0.38;;
76296;SDS011;65104;52.994;6.552;2024-03-02T11:32:15;0.45;;;0.28;;
76296;SDS011;65104;52.994;6.552;2024-03-02T11:34:42;0.50;;;0.40;;
76296;SDS011;65104;52.994;6.552;2024-03-02T11:37:11;0.95;;;0.50;;
76296;SDS011;65104;52.994;6.552;2024-03-02T11:39:39;1.77;;;0.40;;
76296;SDS011;65104;52.994;6.552;2024-03-02T11:42:06;0.85;;;0.30;;
76296;SDS011;65104;52.994;6.552;2024-03-02T11:44:34;0.85;;;0.38;;
76296;SDS011;65104;52.994;6.552;2024-03-02T11:47:02;0.55;;;0.47;;
76296;SDS011;65104;52.994;6.552;2024-03-02T11:49:38;1.80;;;0.60;;
76296;SDS011;65104;52.994;6.552;2024-03-02T11:52:06;1.48;;;0.80;;
76296;SDS011;65104;52.994;6.552;2024-03-02T11:57:01;0.55;;;0.20;;
76296;SDS011;65104;52.994;6.552;2024-03-02T11:59:28;2.65;;;0.50;;
76296;SDS011;65104;52.994;6.552;2024-03-02T12:01:54;2.05;;;0.45;;
76296;SDS011;65104;52.994;6.552;2024-03-02T12:04:21;1.08;;;0.40;;
76296;SDS011;65104;52.994;6.552;2024-03-02T12:06:48;1.00;;;0.47;;
76296;SDS011;65104;52.994;6.552;2024-03-02T12:09:15;2.03;;;0.50;;
76296;SDS011;65104;52.994;6.552;2024-03-02T12:11:41;1.50;;;0.60;;
76296;SDS011;65104;52.994;6.552;2024-03-02T12:14:12;1.60;;;0.68;;
76296;SDS011;65104;52.994;6.552;2024-03-02T12:16:38;0.38;;;0.32;;
76296;SDS011;65104;52.994;6.552;2024-03-02T12:19:06;0.55;;;0.45;;
76296;SDS011;65104;52.994;6.552;2024-03-02T12:21:32;1.50;;;0.60;;
76296;SDS011;65104;52.994;6.552;2024-03-02T12:23:59;1.33;;;0.50;;
76296;SDS011;65104;52.994;6.552;2024-03-02T12:26:25;2.95;;;0.70;;
76296;SDS011;65104;52.994;6.552;2024-03-02T12:28:52;0.90;;;0.40;;
76296;SDS011;65104;52.994;6.552;2024-03-02T12:31:20;1.20;;;0.60;;
76296;SDS011;65104;52.994;6.552;2024-03-02T12:33:46;0.88;;;0.63;;
76296;SDS011;65104;52.994;6.552;2024-03-02T12:36:13;0.70;;;0.60;;
76296;SDS011;65104;52.994;6.552;2024-03-02T12:38:42;0.65;;;0.40;;
76296;SDS011;65104;52.994;6.552;2024-03-02T12:41:09;2.17;;;0.60;;
76296;SDS011;65104;52.994;6.552;2024-03-02T12:43:35;2.08;;;0.88;;
76296;SDS011;65104;52.994;6.552;2024-03-02T12:46:02;0.65;;;0.60;;
76296;SDS011;65104;52.994;6.552;2024-03-02T12:48:30;1.48;;;0.80;;
76296;SDS011;65104;52.994;6.552;2024-03-02T12:50:57;2.00;;;1.10;;
76296;SDS011;65104;52.994;6.552;2024-03-02T12:53:23;1.75;;;1.13;;
76296;SDS011;65104;52.994;6.552;2024-03-02T12:55:50;1.20;;;1.10;;
76296;SDS011;65104;52.994;6.552;2024-03-02T12:58:17;1.83;;;1.17;;
76296;SDS011;65104;52.994;6.552;2024-03-02T13:10:31;1.80;;;1.67;;
76296;SDS011;65104;52.994;6.552;2024-03-02T13:12:58;1.70;;;1.60;;
76296;SDS011;65104;52.994;6.552;2024-03-02T13:15:25;2.28;;;1.50;;
76296;SDS011;65104;52.994;6.552;2024-03-02T13:17:52;2.10;;;1.90;;
76296;SDS011;65104;52.994;6.552;2024-03-02T13:20:18;2.20;;;1.60;;
76296;SDS011;65104;52.994;6.552;2024-03-02T13:22:45;2.38;;;1.45;;
76296;SDS011;65104;52.994;6.552;2024-03-02T13:25:11;1.63;;;1.10;;
76296;SDS011;65104;52.994;6.552;2024-03-02T13:27:39;1.90;;;1.30;;
76296;SDS011;65104;52.994;6.552;2024-03-02T13:30:06;1.27;;;1.17;;
76296;SDS011;65104;52.994;6.552;2024-03-02T13:32:33;2.00;;;1.30;;
76296;SDS011;65104;52.994;6.552;2024-03-02T13:35:00;2.60;;;1.10;;
76296;SDS011;65104;52.994;6.552;2024-03-02T13:37:28;1.60;;;1.38;;
76296;SDS011;65104;52.994;6.552;2024-03-02T13:39:54;2.25;;;1.55;;
76296;SDS011;65104;52.994;6.552;2024-03-02T13:42:20;1.60;;;1.50;;
76296;SDS011;65104;52.994;6.552;2024-03-02T13:44:48;2.00;;;1.67;;
76296;SDS011;65104;52.994;6.552;2024-03-02T13:47:16;1.92;;;1.70;;
76296;SDS011;65104;52.994;6.552;2024-03-02T13:49:43;2.72;;;2.17;;
76296;SDS011;65104;52.994;6.552;2024-03-02T13:52:11;2.83;;;2.30;;
76296;SDS011;65104;52.994;6.552;2024-03-02T13:54:38;2.88;;;2.55;;
76296;SDS011;65104;52.994;6.552;2024-03-02T13:57:05;2.63;;;2.38;;
76296;SDS011;65104;52.994;6.552;2024-03-02T13:59:31;2.70;;;2.33;;
76296;SDS011;65104;52.994;6.552;2024-03-02T14:01:59;2.30;;;2.20;;
76296;SDS011;65104;52.994;6.552;2024-03-02T14:04:26;2.33;;;2.13;;
76296;SDS011;65104;52.994;6.552;2024-03-02T14:06:52;2.58;;;2.38;;
76296;SDS011;65104;52.994;6.552;2024-03-02T14:09:19;3.08;;;2.28;;
76296;SDS011;65104;52.994;6.552;2024-03-02T14:11:46;3.38;;;2.40;;
76296;SDS011;65104;52.994;6.552;2024-03-02T14:14:12;2.88;;;2.55;;
76296;SDS011;65104;52.994;6.552;2024-03-02T14:16:39;2.78;;;2.10;;
76296;SDS011;65104;52.994;6.552;2024-03-02T14:19:06;2.13;;;1.92;;
76296;SDS011;65104;52.994;6.552;2024-03-02T14:21:34;3.20;;;2.00;;
76296;SDS011;65104;52.994;6.552;2024-03-02T14:24:01;1.90;;;1.55;;
76296;SDS011;65104;52.994;6.552;2024-03-02T14:26:27;1.73;;;1.45;;
76296;SDS011;65104;52.994;6.552;2024-03-02T14:28:54;1.50;;;1.15;;
76296;SDS011;65104;52.994;6.552;2024-03-02T14:31:20;1.00;;;0.90;;
76296;SDS011;65104;52.994;6.552;2024-03-02T14:33:47;3.60;;;1.40;;
76296;SDS011;65104;52.994;6.552;2024-03-02T14:36:15;1.25;;;1.10;;
76296;SDS011;65104;52.994;6.552;2024-03-02T14:38:41;2.20;;;0.82;;
76296;SDS011;65104;52.994;6.552;2024-03-02T14:41:08;2.03;;;1.15;;
76296;SDS011;65104;52.994;6.552;2024-03-02T14:43:34;2.45;;;0.90;;
76296;SDS011;65104;52.994;6.552;2024-03-02T14:46:02;1.17;;;0.90;;
76296;SDS011;65104;52.994;6.552;2024-03-02T14:48:29;1.95;;;0.80;;
76296;SDS011;65104;52.994;6.552;2024-03-02T14:50:56;1.25;;;0.90;;
76296;SDS011;65104;52.994;6.552;2024-03-02T14:53:23;2.42;;;0.90;;
76296;SDS011;65104;52.994;6.552;2024-03-02T14:55:50;1.77;;;1.10;;
76296;SDS011;65104;52.994;6.552;2024-03-02T14:58:16;2.33;;;0.80;;
76296;SDS011;65104;52.994;6.552;2024-03-02T15:00:43;1.63;;;0.95;;
76296;SDS011;65104;52.994;6.552;2024-03-02T15:03:09;2.22;;;0.90;;
76296;SDS011;65104;52.994;6.552;2024-03-02T15:05:36;1.58;;;0.90;;
76296;SDS011;65104;52.994;6.552;2024-03-02T15:08:04;1.35;;;1.13;;
76296;SDS011;65104;52.994;6.552;2024-03-02T15:10:32;1.73;;;1.10;;
76296;SDS011;65104;52.994;6.552;2024-03-02T15:12:58;2.45;;;1.00;;
76296;SDS011;65104;52.994;6.552;2024-03-02T15:15:25;1.15;;;0.80;;
76296;SDS011;65104;52.994;6.552;2024-03-02T15:17:51;1.92;;;1.10;;
76296;SDS011;65104;52.994;6.552;2024-03-02T15:20:18;2.03;;;1.17;;
76296;SDS011;65104;52.994;6.552;2024-03-02T15:22:45;1.02;;;0.93;;
76296;SDS011;65104;52.994;6.552;2024-03-02T15:25:12;3.50;;;1.52;;
76296;SDS011;65104;52.994;6.552;2024-03-02T15:27:42;2.20;;;1.50;;
76296;SDS011;65104;52.994;6.552;2024-03-02T15:30:09;1.58;;;1.48;;
76296;SDS011;65104;52.994;6.552;2024-03-02T15:32:35;4.30;;;1.70;;